createdAt,value
2017-07-23T00:00:15.280Z,19.08
2017-07-23T00:01:27.858Z,19.09
2017-07-23T00:02:40.490Z,19.05
2017-07-23T00:03:53.060Z,19.09
2017-07-23T00:05:05.822Z,19.07
2017-07-23T00:06:18.370Z,19.15
2017-07-23T00:07:30.672Z,19.12
2017-07-23T00:08:43.313Z,19.05
2017-07-23T00:09:55.929Z,19.08
2017-07-23T00:11:08.243Z,19.07
2017-07-23T00:12:20.825Z,19.11
2017-07-23T00:13:33.392Z,19.11
2017-07-23T00:14:45.056Z,19.07
2017-07-23T00:15:57.602Z,19.11
2017-07-23T00:17:09.906Z,18.97
2017-07-23T00:18:22.440Z,19.05
2017-07-23T00:19:35.071Z,18.97
2017-07-23T00:20:47.305Z,18.97
2017-07-23T00:21:59.896Z,18.94
2017-07-23T00:23:12.146Z,18.89
2017-07-23T00:24:24.410Z,18.85
2017-07-23T00:25:36.713Z,18.86
2017-07-23T00:26:49.326Z,18.88
2017-07-23T00:28:01.950Z,18.83
2017-07-23T00:29:14.526Z,18.86
2017-07-23T00:30:27.162Z,18.89
2017-07-23T00:31:39.709Z,18.85
2017-07-23T00:32:52.313Z,18.86
2017-07-23T00:34:04.909Z,18.91
2017-07-23T00:35:17.522Z,18.85
2017-07-23T00:36:30.073Z,18.86
2017-07-23T00:37:42.102Z,18.78
2017-07-23T00:38:54.742Z,18.88
2017-07-23T00:40:07.296Z,18.88
2017-07-23T00:41:19.933Z,18.85
2017-07-23T00:42:32.246Z,18.86
2017-07-23T00:43:44.638Z,18.78
2017-07-23T00:44:56.894Z,18.83
2017-07-23T00:46:09.524Z,18.74
2017-07-23T00:47:21.795Z,18.71
2017-07-23T00:48:34.399Z,18.7
2017-07-23T00:49:46.633Z,18.83
2017-07-23T00:50:59.207Z,18.71
2017-07-23T00:52:11.490Z,18.64
2017-07-23T00:53:24.098Z,18.61
2017-07-23T00:54:36.420Z,18.63
2017-07-23T00:55:49.028Z,18.66
2017-07-23T00:57:01.299Z,18.6
2017-07-23T00:58:13.853Z,18.55
2017-07-23T00:59:26.739Z,18.61
2017-07-23T01:00:39.351Z,18.53
2017-07-23T01:01:51.903Z,18.63
2017-07-23T01:03:04.251Z,18.49
2017-07-23T01:04:16.783Z,18.51
2017-07-23T01:05:29.335Z,18.48
2017-07-23T01:06:41.938Z,18.49
2017-07-23T01:07:54.587Z,18.52
2017-07-23T01:09:07.223Z,18.42
2017-07-23T01:10:19.869Z,18.43
2017-07-23T01:11:32.445Z,18.39
2017-07-23T01:12:44.774Z,18.42
2017-07-23T01:13:57.331Z,18.45
2017-07-23T01:15:09.908Z,18.45
2017-07-23T01:16:22.183Z,18.49
2017-07-23T01:17:34.519Z,18.39
2017-07-23T01:18:47.108Z,18.48
2017-07-23T01:19:59.677Z,18.46
2017-07-23T01:21:11.956Z,18.48
2017-07-23T01:22:24.199Z,18.49
2017-07-23T01:23:36.842Z,18.51
2017-07-23T01:24:49.462Z,18.52
2017-07-23T01:26:02.101Z,18.51
2017-07-23T01:27:14.646Z,18.51
2017-07-23T01:28:26.957Z,18.6
2017-07-23T01:29:39.512Z,18.63
2017-07-23T01:30:51.759Z,18.58
2017-07-23T01:32:04.369Z,18.67
2017-07-23T01:33:16.959Z,18.64
2017-07-23T01:34:29.555Z,18.67
2017-07-23T01:35:42.117Z,18.7
2017-07-23T01:36:54.671Z,18.68
2017-07-23T01:38:07.207Z,18.68
2017-07-23T01:39:19.792Z,18.61
2017-07-23T01:40:32.405Z,18.67
2017-07-23T01:41:44.369Z,18.67
2017-07-23T01:42:57.145Z,18.67
2017-07-23T01:44:09.830Z,18.64
2017-07-23T01:45:22.084Z,18.71
2017-07-23T01:46:34.710Z,18.61
2017-07-23T01:47:47.327Z,18.61
2017-07-23T01:48:59.912Z,18.66
2017-07-23T01:50:12.210Z,18.66
2017-07-23T01:51:24.522Z,18.66
2017-07-23T01:52:37.095Z,18.66
2017-07-23T01:53:49.403Z,18.67
2017-07-23T01:55:01.652Z,18.64
2017-07-23T01:56:14.187Z,18.64
2017-07-23T01:57:26.734Z,18.64
2017-07-23T01:58:39.345Z,18.61
2017-07-23T01:59:51.897Z,18.6
2017-07-23T02:01:04.540Z,18.6
2017-07-23T02:02:16.856Z,18.64
2017-07-23T02:03:29.399Z,18.63
2017-07-23T02:04:41.984Z,18.67
2017-07-23T02:05:54.580Z,18.63
2017-07-23T02:07:06.850Z,18.63
2017-07-23T02:08:19.147Z,18.61
2017-07-23T02:09:31.768Z,18.63
2017-07-23T02:10:44.369Z,18.57
2017-07-23T02:11:56.970Z,18.58
2017-07-23T02:13:09.631Z,18.61
2017-07-23T02:14:22.237Z,18.6
2017-07-23T02:15:34.834Z,18.57
2017-07-23T02:16:47.426Z,18.58
2017-07-23T02:18:00.015Z,18.64
2017-07-23T02:19:12.564Z,18.6
2017-07-23T02:20:25.125Z,18.57
2017-07-23T02:21:37.765Z,18.61
2017-07-23T02:22:50.311Z,18.48
2017-07-23T02:24:02.602Z,18.55
2017-07-23T02:25:14.878Z,18.53
2017-07-23T02:26:27.181Z,18.53
2017-07-23T02:27:39.765Z,18.55
2017-07-23T02:28:52.364Z,18.48
2017-07-23T02:30:04.623Z,18.53
2017-07-23T02:31:17.219Z,18.51
2017-07-23T02:32:29.859Z,18.48
2017-07-23T02:33:42.425Z,18.43
2017-07-23T02:34:55.043Z,18.51
2017-07-23T02:36:07.622Z,18.49
2017-07-23T02:37:20.506Z,18.49
2017-07-23T02:38:33.112Z,18.39
2017-07-23T02:39:45.747Z,18.45
2017-07-23T02:40:58.346Z,18.37
2017-07-23T02:42:11.002Z,18.45
2017-07-23T02:43:23.627Z,18.41
2017-07-23T02:44:35.884Z,18.41
2017-07-23T02:45:48.104Z,18.34
2017-07-23T02:47:00.625Z,18.36
2017-07-23T02:48:13.225Z,18.42
2017-07-23T02:49:25.842Z,18.37
2017-07-23T02:50:38.393Z,18.39
2017-07-23T02:51:50.738Z,18.36
2017-07-23T02:53:03.331Z,18.34
2017-07-23T02:54:16.000Z,18.37
2017-07-23T02:55:28.273Z,18.31
2017-07-23T02:56:40.846Z,18.39
2017-07-23T02:57:53.428Z,18.41
2017-07-23T02:59:06.007Z,18.39
2017-07-23T03:00:18.611Z,18.39
2017-07-23T03:01:31.246Z,18.33
2017-07-23T03:02:43.896Z,18.28
2017-07-23T03:03:56.497Z,18.33
2017-07-23T03:05:09.123Z,18.3
2017-07-23T03:06:21.660Z,18.33
2017-07-23T03:07:34.190Z,18.3
2017-07-23T03:08:46.776Z,18.26
2017-07-23T03:09:59.307Z,18.27
2017-07-23T03:11:11.868Z,18.37
2017-07-23T03:12:24.155Z,18.28
2017-07-23T03:13:36.765Z,18.39
2017-07-23T03:14:49.320Z,18.27
2017-07-23T03:16:01.924Z,18.42
2017-07-23T03:17:14.223Z,18.3
2017-07-23T03:18:26.484Z,18.33
2017-07-23T03:19:39.066Z,18.26
2017-07-23T03:20:51.627Z,18.27
2017-07-23T03:22:04.190Z,18.24
2017-07-23T03:23:16.443Z,18.3
2017-07-23T03:24:29.045Z,18.27
2017-07-23T03:25:41.685Z,18.31
2017-07-23T03:26:54.215Z,18.31
2017-07-23T03:28:06.797Z,18.26
2017-07-23T03:29:19.077Z,18.27
2017-07-23T03:30:31.401Z,18.27
2017-07-23T03:31:43.964Z,18.3
2017-07-23T03:32:56.567Z,18.3
2017-07-23T03:34:08.931Z,18.28
2017-07-23T03:35:21.539Z,18.26
2017-07-23T03:36:34.098Z,18.3
2017-07-23T03:37:46.645Z,18.37
2017-07-23T03:38:59.246Z,18.24
2017-07-23T03:40:11.844Z,18.37
2017-07-23T03:41:24.487Z,18.3
2017-07-23T03:42:36.785Z,18.26
2017-07-23T03:43:49.342Z,18.27
2017-07-23T03:45:01.919Z,18.31
2017-07-23T03:46:14.222Z,18.39
2017-07-23T03:47:26.786Z,18.31
2017-07-23T03:48:39.138Z,18.36
2017-07-23T03:49:51.402Z,18.42
2017-07-23T03:51:04.010Z,18.27
2017-07-23T03:52:16.552Z,18.33
2017-07-23T03:53:29.056Z,18.36
2017-07-23T03:54:41.643Z,18.34
2017-07-23T03:55:54.217Z,18.36
2017-07-23T03:57:06.820Z,18.39
2017-07-23T03:58:19.074Z,18.37
2017-07-23T03:59:31.702Z,18.45
2017-07-23T04:00:44.250Z,18.36
2017-07-23T04:01:56.787Z,18.45
2017-07-23T04:03:09.401Z,18.45
2017-07-23T04:04:21.410Z,18.46
2017-07-23T04:05:33.974Z,18.42
2017-07-23T04:06:46.560Z,18.58
2017-07-23T04:07:59.165Z,18.52
2017-07-23T04:09:11.770Z,18.51
2017-07-23T04:10:24.377Z,18.49
2017-07-23T04:11:36.668Z,18.58
2017-07-23T04:12:49.271Z,18.49
2017-07-23T04:14:01.829Z,18.57
2017-07-23T04:15:14.067Z,18.57
2017-07-23T04:16:26.706Z,18.52
2017-07-23T04:17:39.309Z,18.51
2017-07-23T04:18:51.891Z,18.6
2017-07-23T04:20:04.215Z,18.53
2017-07-23T04:21:16.790Z,18.53
2017-07-23T04:22:29.399Z,18.6
2017-07-23T04:23:42.039Z,18.6
2017-07-23T04:24:54.324Z,18.49
2017-07-23T04:26:06.838Z,18.51
2017-07-23T04:27:18.783Z,18.52
2017-07-23T04:28:31.409Z,18.48
2017-07-23T04:29:43.389Z,18.58
2017-07-23T04:30:55.947Z,18.55
2017-07-23T04:32:08.529Z,18.64
2017-07-23T04:33:20.855Z,18.55
2017-07-23T04:34:33.401Z,18.53
2017-07-23T04:35:46.029Z,18.48
2017-07-23T04:36:58.608Z,18.55
2017-07-23T04:38:11.163Z,18.53
2017-07-23T04:39:23.197Z,18.63
2017-07-23T04:40:35.796Z,18.52
2017-07-23T04:41:48.402Z,18.55
2017-07-23T04:43:00.986Z,18.52
2017-07-23T04:44:13.567Z,18.48
2017-07-23T04:45:25.815Z,18.52
2017-07-23T04:46:37.804Z,18.61
2017-07-23T04:47:50.364Z,18.57
2017-07-23T04:49:02.616Z,18.58
2017-07-23T04:50:14.917Z,18.67
2017-07-23T04:51:27.486Z,18.64
2017-07-23T04:52:40.108Z,18.64
2017-07-23T04:53:52.361Z,18.64
2017-07-23T04:55:04.696Z,18.68
2017-07-23T04:56:16.988Z,18.68
2017-07-23T04:57:29.309Z,18.66
2017-07-23T04:58:42.175Z,18.66
2017-07-23T04:59:54.772Z,18.64
2017-07-23T05:01:06.997Z,18.76
2017-07-23T05:02:19.631Z,18.76
2017-07-23T05:03:32.270Z,18.83
2017-07-23T05:04:44.917Z,18.91
2017-07-23T05:05:57.194Z,18.92
2017-07-23T05:07:09.791Z,18.91
2017-07-23T05:08:21.774Z,18.92
2017-07-23T05:09:34.375Z,18.96
2017-07-23T05:10:46.325Z,19.01
2017-07-23T05:11:58.924Z,19.07
2017-07-23T05:13:11.207Z,19.09
2017-07-23T05:14:23.778Z,19.15
2017-07-23T05:15:36.373Z,19.11
2017-07-23T05:16:48.970Z,19.07
2017-07-23T05:18:01.580Z,19.17
2017-07-23T05:19:14.133Z,19.2
2017-07-23T05:20:26.452Z,19.16
2017-07-23T05:21:38.426Z,19.24
2017-07-23T05:22:51.032Z,19.23
2017-07-23T05:24:03.670Z,19.27
2017-07-23T05:25:15.987Z,19.26
2017-07-23T05:26:28.584Z,19.27
2017-07-23T05:27:41.079Z,19.41
2017-07-23T05:28:53.305Z,19.37
2017-07-23T05:30:05.851Z,19.42
2017-07-23T05:31:18.470Z,19.44
2017-07-23T05:32:30.747Z,19.55
2017-07-23T05:33:43.107Z,19.59
2017-07-23T05:34:55.713Z,19.64
2017-07-23T05:36:08.326Z,19.64
2017-07-23T05:37:20.947Z,19.62
2017-07-23T05:38:33.566Z,19.74
2017-07-23T05:39:46.141Z,19.56
2017-07-23T05:40:58.433Z,19.72
2017-07-23T05:42:10.723Z,19.78
2017-07-23T05:43:23.265Z,19.64
2017-07-23T05:44:35.883Z,19.78
2017-07-23T05:45:48.474Z,19.78
2017-07-23T05:47:00.720Z,19.93
2017-07-23T05:48:13.316Z,19.9
2017-07-23T05:49:25.955Z,19.99
2017-07-23T05:50:38.502Z,20.02
2017-07-23T05:51:51.133Z,20.14
2017-07-23T05:53:03.762Z,20.22
2017-07-23T05:54:16.368Z,20.21
2017-07-23T05:55:28.946Z,20.42
2017-07-23T05:56:41.506Z,20.44
2017-07-23T05:57:54.102Z,20.44
2017-07-23T05:59:06.705Z,20.64
2017-07-23T06:00:19.337Z,20.86
2017-07-23T06:01:31.645Z,20.86
2017-07-23T06:02:43.967Z,20.85
2017-07-23T06:03:56.212Z,20.78
2017-07-23T06:05:08.851Z,20.82
2017-07-23T06:06:21.459Z,20.78
2017-07-23T06:07:34.196Z,20.75
2017-07-23T06:08:46.433Z,20.7
2017-07-23T06:09:58.930Z,20.68
2017-07-23T06:11:11.219Z,20.67
2017-07-23T06:12:23.821Z,20.53
2017-07-23T06:13:36.123Z,20.46
2017-07-23T06:14:47.825Z,20.42
2017-07-23T06:16:00.434Z,20.33
2017-07-23T06:17:12.737Z,20.24
2017-07-23T06:18:24.714Z,20.27
2017-07-23T06:19:37.295Z,20.21
2017-07-23T06:20:49.885Z,20.15
2017-07-23T06:22:02.197Z,20.12
2017-07-23T06:23:14.457Z,20.12
2017-07-23T06:24:26.730Z,20.18
2017-07-23T06:25:38.970Z,20.08
2017-07-23T06:26:51.628Z,20.02
2017-07-23T06:28:04.261Z,20
2017-07-23T06:29:16.522Z,19.97
2017-07-23T06:30:29.094Z,19.92
2017-07-23T06:31:41.337Z,19.93
2017-07-23T06:32:53.894Z,19.85
2017-07-23T06:34:06.157Z,19.74
2017-07-23T06:35:18.737Z,19.81
2017-07-23T06:36:31.325Z,19.74
2017-07-23T06:37:43.916Z,19.63
2017-07-23T06:38:56.520Z,19.45
2017-07-23T06:40:08.815Z,19.47
2017-07-23T06:41:21.380Z,19.42
2017-07-23T06:42:34.003Z,19.39
2017-07-23T06:43:46.625Z,19.27
2017-07-23T06:44:58.943Z,19.27
2017-07-23T06:46:11.566Z,19.2
2017-07-23T06:47:24.430Z,19.09
2017-07-23T06:48:37.073Z,19.11
2017-07-23T06:49:49.583Z,18.96
2017-07-23T06:51:01.605Z,18.96
2017-07-23T06:52:14.150Z,18.82
2017-07-23T06:53:26.788Z,18.89
2017-07-23T06:54:39.077Z,18.81
2017-07-23T06:55:51.715Z,18.82
2017-07-23T06:57:04.328Z,18.68
2017-07-23T06:58:17.129Z,18.7
2017-07-23T06:59:29.732Z,18.68
2017-07-23T07:00:42.067Z,18.61
2017-07-23T07:01:54.699Z,18.55
2017-07-23T07:03:07.067Z,18.64
2017-07-23T07:04:19.110Z,18.49
2017-07-23T07:05:31.733Z,18.53
2017-07-23T07:06:44.023Z,18.57
2017-07-23T07:07:56.608Z,18.48
2017-07-23T07:09:08.884Z,18.52
2017-07-23T07:10:21.174Z,18.52
2017-07-23T07:11:33.195Z,18.51
2017-07-23T07:12:45.451Z,18.48
2017-07-23T07:13:57.444Z,18.42
2017-07-23T07:15:10.027Z,18.48
2017-07-23T07:16:22.348Z,18.49
2017-07-23T07:17:34.982Z,18.43
2017-07-23T07:18:47.627Z,18.45
2017-07-23T07:20:00.190Z,18.49
2017-07-23T07:21:12.449Z,18.52
2017-07-23T07:22:25.068Z,18.53
2017-07-23T07:23:37.723Z,18.53
2017-07-23T07:24:50.342Z,18.6
2017-07-23T07:26:02.678Z,18.64
2017-07-23T07:27:14.961Z,18.63
2017-07-23T07:28:27.571Z,18.64
2017-07-23T07:29:40.178Z,18.66
2017-07-23T07:30:52.793Z,18.66
2017-07-23T07:32:05.039Z,18.7
2017-07-23T07:33:16.752Z,18.67
2017-07-23T07:34:29.029Z,18.81
2017-07-23T07:35:41.589Z,18.79
2017-07-23T07:36:53.849Z,18.79
2017-07-23T07:38:06.137Z,18.79
2017-07-23T07:39:18.672Z,18.83
2017-07-23T07:40:31.283Z,18.85
2017-07-23T07:41:44.136Z,18.76
2017-07-23T07:42:56.746Z,18.91
2017-07-23T07:44:09.335Z,18.92
2017-07-23T07:45:21.639Z,18.86
2017-07-23T07:46:33.924Z,18.89
2017-07-23T07:47:45.897Z,18.94
2017-07-23T07:48:58.487Z,18.96
2017-07-23T07:50:10.729Z,19
2017-07-23T07:51:23.049Z,19.09
2017-07-23T07:52:35.642Z,19.17
2017-07-23T07:53:47.940Z,19.12
2017-07-23T07:55:00.274Z,19.2
2017-07-23T07:56:12.803Z,19.24
2017-07-23T07:57:25.421Z,19.27
2017-07-23T07:58:38.327Z,19.27
2017-07-23T07:59:50.914Z,19.37
2017-07-23T08:01:03.513Z,19.42
2017-07-23T08:02:15.517Z,19.35
2017-07-23T08:03:28.163Z,19.49
2017-07-23T08:04:40.449Z,19.47
2017-07-23T08:05:52.993Z,19.49
2017-07-23T08:07:05.341Z,19.57
2017-07-23T08:08:17.910Z,19.6
2017-07-23T08:09:30.497Z,19.64
2017-07-23T08:10:42.731Z,19.6
2017-07-23T08:11:55.312Z,19.63
2017-07-23T08:13:07.887Z,19.77
2017-07-23T08:14:20.418Z,19.82
2017-07-23T08:15:33.073Z,19.9
2017-07-23T08:16:45.705Z,19.92
2017-07-23T08:17:58.040Z,20.02
2017-07-23T08:19:10.306Z,20.11
2017-07-23T08:20:22.956Z,20.22
2017-07-23T08:21:35.277Z,20.27
2017-07-23T08:22:47.239Z,20.32
2017-07-23T08:23:59.865Z,20.44
2017-07-23T08:25:12.481Z,20.55
2017-07-23T08:26:24.500Z,20.66
2017-07-23T08:27:37.144Z,20.77
2017-07-23T08:28:49.718Z,20.82
2017-07-23T08:30:01.919Z,20.98
2017-07-23T08:31:14.201Z,21.03
2017-07-23T08:32:26.801Z,21.19
2017-07-23T08:33:39.177Z,21.2
2017-07-23T08:34:51.763Z,21.28
2017-07-23T08:36:04.353Z,21.3
2017-07-23T08:37:16.991Z,21.41
2017-07-23T08:38:29.286Z,21.32
2017-07-23T08:39:41.904Z,21.35
2017-07-23T08:40:54.430Z,21.45
2017-07-23T08:42:06.741Z,21.43
2017-07-23T08:43:19.047Z,21.47
2017-07-23T08:44:31.365Z,21.35
2017-07-23T08:45:43.959Z,21.53
2017-07-23T08:46:56.561Z,21.53
2017-07-23T08:48:09.155Z,21.58
2017-07-23T08:49:21.775Z,21.66
2017-07-23T08:50:34.360Z,21.65
2017-07-23T08:51:46.975Z,21.63
2017-07-23T08:52:58.989Z,21.7
2017-07-23T08:54:11.060Z,21.72
2017-07-23T08:55:23.075Z,21.84
2017-07-23T08:56:35.664Z,21.96
2017-07-23T08:57:48.194Z,21.97
2017-07-23T08:59:00.838Z,22
2017-07-23T09:00:13.090Z,22.18
2017-07-23T09:01:25.461Z,22.28
2017-07-23T09:02:38.094Z,22.25
2017-07-23T09:03:50.656Z,22.4
2017-07-23T09:05:02.894Z,22.51
2017-07-23T09:06:15.500Z,22.58
2017-07-23T09:07:28.226Z,22.62
2017-07-23T09:08:40.472Z,22.59
2017-07-23T09:09:52.783Z,22.61
2017-07-23T09:11:05.326Z,22.46
2017-07-23T09:12:17.850Z,22.41
2017-07-23T09:13:30.189Z,22.58
2017-07-23T09:14:42.811Z,22.59
2017-07-23T09:15:55.385Z,22.59
2017-07-23T09:17:07.755Z,22.74
2017-07-23T09:18:20.339Z,22.91
2017-07-23T09:19:32.643Z,22.92
2017-07-23T09:20:45.293Z,22.86
2017-07-23T09:21:57.903Z,22.98
2017-07-23T09:23:10.484Z,23.01
2017-07-23T09:24:23.020Z,23.02
2017-07-23T09:25:35.025Z,22.99
2017-07-23T09:26:47.569Z,23.04
2017-07-23T09:28:00.210Z,23.07
2017-07-23T09:29:12.504Z,23.1
2017-07-23T09:30:24.781Z,23.06
2017-07-23T09:31:37.120Z,23.16
2017-07-23T09:32:49.399Z,23.02
2017-07-23T09:34:02.038Z,23.06
2017-07-23T09:35:14.692Z,23.17
2017-07-23T09:36:26.748Z,23.18
2017-07-23T09:37:39.375Z,23.26
2017-07-23T09:38:51.937Z,23.2
2017-07-23T09:40:04.262Z,23.26
2017-07-23T09:41:16.881Z,23.2
2017-07-23T09:42:29.168Z,23.13
2017-07-23T09:43:41.424Z,23.08
2017-07-23T09:44:54.011Z,22.92
2017-07-23T09:46:06.355Z,22.92
2017-07-23T09:47:18.651Z,22.95
2017-07-23T09:48:31.249Z,22.91
2017-07-23T09:49:43.803Z,22.76
2017-07-23T09:50:56.131Z,22.77
2017-07-23T09:52:08.765Z,22.77
2017-07-23T09:53:21.025Z,22.74
2017-07-23T09:54:33.286Z,22.77
2017-07-23T09:55:45.574Z,22.8
2017-07-23T09:56:57.570Z,22.77
2017-07-23T09:58:09.873Z,22.86
2017-07-23T09:59:22.151Z,22.84
2017-07-23T10:00:34.482Z,22.92
2017-07-23T10:01:47.093Z,22.95
2017-07-23T10:02:59.639Z,22.93
2017-07-23T10:04:12.268Z,22.96
2017-07-23T10:05:24.532Z,23.01
2017-07-23T10:06:37.127Z,23.02
2017-07-23T10:07:49.737Z,23.16
2017-07-23T10:09:02.288Z,23.2
2017-07-23T10:10:14.551Z,23.34
2017-07-23T10:11:26.879Z,23.36
2017-07-23T10:12:39.181Z,23.48
2017-07-23T10:13:51.092Z,23.45
2017-07-23T10:15:03.705Z,23.63
2017-07-23T10:16:16.285Z,23.76
2017-07-23T10:17:28.987Z,23.73
2017-07-23T10:18:41.598Z,23.79
2017-07-23T10:19:54.165Z,23.86
2017-07-23T10:21:06.735Z,23.88
2017-07-23T10:22:19.034Z,23.88
2017-07-23T10:23:31.619Z,23.92
2017-07-23T10:24:43.926Z,24.04
2017-07-23T10:25:56.547Z,24.04
2017-07-23T10:27:09.223Z,23.95
2017-07-23T10:28:21.325Z,23.91
2017-07-23T10:29:34.015Z,23.89
2017-07-23T10:30:46.008Z,23.76
2017-07-23T10:31:58.603Z,23.77
2017-07-23T10:33:10.611Z,23.92
2017-07-23T10:34:22.627Z,23.85
2017-07-23T10:35:35.232Z,23.94
2017-07-23T10:36:47.807Z,23.89
2017-07-23T10:38:00.395Z,23.88
2017-07-23T10:39:12.406Z,23.92
2017-07-23T10:40:24.996Z,23.89
2017-07-23T10:41:37.601Z,23.95
2017-07-23T10:42:50.154Z,23.99
2017-07-23T10:44:02.714Z,24.09
2017-07-23T10:45:15.278Z,24.16
2017-07-23T10:46:27.949Z,24.26
2017-07-23T10:47:40.551Z,24.38
2017-07-23T10:48:53.142Z,24.58
2017-07-23T10:50:05.112Z,24.79
2017-07-23T10:51:17.712Z,25.06
2017-07-23T10:52:30.046Z,25.37
2017-07-23T10:53:42.450Z,25.51
2017-07-23T10:54:55.013Z,25.78
2017-07-23T10:56:07.317Z,26.1
2017-07-23T10:57:19.887Z,26.3
2017-07-23T10:58:32.434Z,26.44
2017-07-23T10:59:44.354Z,26.56
2017-07-23T11:00:56.968Z,26.67
2017-07-23T11:02:09.251Z,26.73
2017-07-23T11:03:21.893Z,27.18
2017-07-23T11:04:34.189Z,27.25
2017-07-23T11:05:46.741Z,27.37
2017-07-23T11:06:59.323Z,27.38
2017-07-23T11:08:11.578Z,27.38
2017-07-23T11:09:23.910Z,27.3
2017-07-23T11:10:36.494Z,27.29
2017-07-23T11:11:48.517Z,27.05
2017-07-23T11:13:01.084Z,27.11
2017-07-23T11:14:13.440Z,27.07
2017-07-23T11:15:25.788Z,26.92
2017-07-23T11:16:38.403Z,26.68
2017-07-23T11:17:51.061Z,26.59
2017-07-23T11:19:03.591Z,26.63
2017-07-23T11:20:15.638Z,26.7
2017-07-23T11:21:27.634Z,26.7
2017-07-23T11:22:39.952Z,26.44
2017-07-23T11:23:52.595Z,26.51
2017-07-23T11:25:04.837Z,26.52
2017-07-23T11:26:17.362Z,26.55
2017-07-23T11:27:30.010Z,26.52
2017-07-23T11:28:42.587Z,26.52
2017-07-23T11:29:55.178Z,26.45
2017-07-23T11:31:07.493Z,26.33
2017-07-23T11:32:20.046Z,26.13
2017-07-23T11:33:32.267Z,26.1
2017-07-23T11:34:44.904Z,26.03
2017-07-23T11:35:57.488Z,25.98
2017-07-23T11:37:10.165Z,25.78
2017-07-23T11:38:21.844Z,25.83
2017-07-23T11:39:34.471Z,25.56
2017-07-23T11:40:46.434Z,25.58
2017-07-23T11:41:59.040Z,25.52
2017-07-23T11:43:11.626Z,25.54
2017-07-23T11:44:23.951Z,25.41
2017-07-23T11:45:36.535Z,25.52
2017-07-23T11:46:49.137Z,25.43
2017-07-23T11:48:01.400Z,25.41
2017-07-23T11:49:14.048Z,25.54
2017-07-23T11:50:26.636Z,25.56
2017-07-23T11:51:38.946Z,25.52
2017-07-23T11:52:51.561Z,25.56
2017-07-23T11:54:04.154Z,25.63
2017-07-23T11:55:16.128Z,25.54
2017-07-23T11:56:28.463Z,25.49
2017-07-23T11:57:41.025Z,25.55
2017-07-23T11:58:53.303Z,25.54
2017-07-23T12:00:05.586Z,25.66
2017-07-23T12:01:17.574Z,25.7
2017-07-23T12:02:30.197Z,25.81
2017-07-23T12:03:42.192Z,25.85
2017-07-23T12:04:54.483Z,25.89
2017-07-23T12:06:07.092Z,25.88
2017-07-23T12:07:19.704Z,25.85
2017-07-23T12:08:32.349Z,25.88
2017-07-23T12:09:44.618Z,25.77
2017-07-23T12:10:57.238Z,25.77
2017-07-23T12:12:09.521Z,26.03
2017-07-23T12:13:21.523Z,26.24
2017-07-23T12:14:34.138Z,26.48
2017-07-23T12:15:46.189Z,26.56
2017-07-23T12:16:58.786Z,26.82
2017-07-23T12:18:10.806Z,27.1
2017-07-23T12:19:22.510Z,27.38
2017-07-23T12:20:35.157Z,27.44
2017-07-23T12:21:47.707Z,27.4
2017-07-23T12:22:59.986Z,27.4
2017-07-23T12:24:12.624Z,27.48
2017-07-23T12:25:25.265Z,27.5
2017-07-23T12:26:37.529Z,27.66
2017-07-23T12:27:50.147Z,27.61
2017-07-23T12:29:02.777Z,27.81
2017-07-23T12:30:15.372Z,27.86
2017-07-23T12:31:27.701Z,28.15
2017-07-23T12:32:40.008Z,28.34
2017-07-23T12:33:52.278Z,28.56
2017-07-23T12:35:04.875Z,28.71
2017-07-23T12:36:17.460Z,28.84
2017-07-23T12:37:29.849Z,28.89
2017-07-23T12:38:42.473Z,28.97
2017-07-23T12:39:54.831Z,28.87
2017-07-23T12:41:07.097Z,28.87
2017-07-23T12:42:19.769Z,28.89
2017-07-23T12:43:32.346Z,29.06
2017-07-23T12:44:44.878Z,29.34
2017-07-23T12:45:57.478Z,29.49
2017-07-23T12:47:10.141Z,29.64
2017-07-23T12:48:22.438Z,29.79
2017-07-23T12:49:35.073Z,29.87
2017-07-23T12:50:47.439Z,30.03
2017-07-23T12:52:00.060Z,30.11
2017-07-23T12:53:12.338Z,30.02
2017-07-23T12:54:24.634Z,30.11
2017-07-23T12:55:37.188Z,30.11
2017-07-23T12:56:49.742Z,29.86
2017-07-23T12:58:01.713Z,29.96
2017-07-23T12:59:13.986Z,29.8
2017-07-23T13:00:26.647Z,29.89
2017-07-23T13:01:38.946Z,29.9
2017-07-23T13:02:50.920Z,30.05
2017-07-23T13:04:03.213Z,30.02
2017-07-23T13:05:15.205Z,30.2
2017-07-23T13:06:27.801Z,30.35
2017-07-23T13:07:40.385Z,30.33
2017-07-23T13:08:52.991Z,30.36
2017-07-23T13:10:05.379Z,30.38
2017-07-23T13:11:17.961Z,30.43
2017-07-23T13:12:30.310Z,30.55
2017-07-23T13:13:42.630Z,30.73
2017-07-23T13:14:55.254Z,30.73
2017-07-23T13:16:07.558Z,30.81
2017-07-23T13:17:19.241Z,30.95
2017-07-23T13:18:31.267Z,31.1
2017-07-23T13:19:43.349Z,31.13
2017-07-23T13:20:55.955Z,31.22
2017-07-23T13:22:08.303Z,31.45
2017-07-23T13:23:20.668Z,31.52
2017-07-23T13:24:32.964Z,31.51
2017-07-23T13:25:45.587Z,31.54
2017-07-23T13:26:57.824Z,31.55
2017-07-23T13:28:10.170Z,31.77
2017-07-23T13:29:22.816Z,31.98
2017-07-23T13:30:35.129Z,32.09
2017-07-23T13:31:47.772Z,32.11
2017-07-23T13:33:00.429Z,32.24
2017-07-23T13:34:13.031Z,32.16
2017-07-23T13:35:25.641Z,32.3
2017-07-23T13:36:38.299Z,32.41
2017-07-23T13:37:50.349Z,32.44
2017-07-23T13:39:03.003Z,32.41
2017-07-23T13:40:15.330Z,32.37
2017-07-23T13:41:27.919Z,32.37
2017-07-23T13:42:40.491Z,32.19
2017-07-23T13:43:52.786Z,31.81
2017-07-23T13:45:05.477Z,31.54
2017-07-23T13:46:18.394Z,31.26
2017-07-23T13:47:30.688Z,31.05
2017-07-23T13:48:42.369Z,30.65
2017-07-23T13:49:54.995Z,30.36
2017-07-23T13:51:07.308Z,30.16
2017-07-23T13:52:19.938Z,29.8
2017-07-23T13:53:32.484Z,29.35
2017-07-23T13:54:44.755Z,28.97
2017-07-23T13:55:57.323Z,28.7
2017-07-23T13:57:09.604Z,28.55
2017-07-23T13:58:22.242Z,28.22
2017-07-23T13:59:34.914Z,28.01
2017-07-23T14:00:47.198Z,27.83
2017-07-23T14:01:59.706Z,27.71
2017-07-23T14:03:12.282Z,27.64
2017-07-23T14:04:24.930Z,27.48
2017-07-23T14:05:37.489Z,27.52
2017-07-23T14:06:49.883Z,27.53
2017-07-23T14:08:02.503Z,27.68
2017-07-23T14:09:14.769Z,27.67
2017-07-23T14:10:26.510Z,27.72
2017-07-23T14:11:38.790Z,27.63
2017-07-23T14:12:51.149Z,27.5
2017-07-23T14:14:03.375Z,27.26
2017-07-23T14:15:15.622Z,27.2
2017-07-23T14:16:28.207Z,26.97
2017-07-23T14:17:40.810Z,26.79
2017-07-23T14:18:53.424Z,26.66
2017-07-23T14:20:05.743Z,26.52
2017-07-23T14:21:17.726Z,26.55
2017-07-23T14:22:30.318Z,26.49
2017-07-23T14:23:42.955Z,26.61
2017-07-23T14:24:55.209Z,26.7
2017-07-23T14:26:07.763Z,26.7
2017-07-23T14:27:20.411Z,26.76
2017-07-23T14:28:33.018Z,26.91
2017-07-23T14:29:45.637Z,27.05
2017-07-23T14:30:58.233Z,27.19
2017-07-23T14:32:10.514Z,27.26
2017-07-23T14:33:23.135Z,27.26
2017-07-23T14:34:35.681Z,27.22
2017-07-23T14:35:48.261Z,27.33
2017-07-23T14:37:00.573Z,27.23
2017-07-23T14:38:13.238Z,27.13
2017-07-23T14:39:25.812Z,26.89
2017-07-23T14:40:38.392Z,26.81
2017-07-23T14:41:51.021Z,26.73
2017-07-23T14:43:03.667Z,26.81
2017-07-23T14:44:15.943Z,26.73
2017-07-23T14:45:28.539Z,26.82
2017-07-23T14:46:40.589Z,26.76
2017-07-23T14:47:53.157Z,26.76
2017-07-23T14:49:05.783Z,26.67
2017-07-23T14:50:18.444Z,26.51
2017-07-23T14:51:30.396Z,26.52
2017-07-23T14:52:42.941Z,26.49
2017-07-23T14:53:55.230Z,26.33
2017-07-23T14:55:07.805Z,26.31
2017-07-23T14:56:19.885Z,26.19
2017-07-23T14:57:32.188Z,26.26
2017-07-23T14:58:44.499Z,26.07
2017-07-23T14:59:56.793Z,26.11
2017-07-23T15:01:09.056Z,26.04
2017-07-23T15:02:21.626Z,26.06
2017-07-23T15:03:34.204Z,25.96
2017-07-23T15:04:46.179Z,25.95
2017-07-23T15:05:58.512Z,25.95
2017-07-23T15:07:11.090Z,25.86
2017-07-23T15:08:23.399Z,25.86
2017-07-23T15:09:36.010Z,25.95
2017-07-23T15:10:48.623Z,25.92
2017-07-23T15:12:00.858Z,25.88
2017-07-23T15:13:12.799Z,25.85
2017-07-23T15:14:25.420Z,25.81
2017-07-23T15:15:37.981Z,25.83
2017-07-23T15:16:50.002Z,25.8
2017-07-23T15:18:02.547Z,25.89
2017-07-23T15:19:14.233Z,25.81
2017-07-23T15:20:26.911Z,25.88
2017-07-23T15:21:39.243Z,25.89
2017-07-23T15:22:51.522Z,25.81
2017-07-23T15:24:04.083Z,25.81
2017-07-23T15:25:16.113Z,25.88
2017-07-23T15:26:28.095Z,25.83
2017-07-23T15:27:40.171Z,25.8
2017-07-23T15:28:52.224Z,25.81
2017-07-23T15:30:04.822Z,25.83
2017-07-23T15:31:16.836Z,25.85
2017-07-23T15:32:29.119Z,25.91
2017-07-23T15:33:41.764Z,25.76
2017-07-23T15:34:54.365Z,25.85
2017-07-23T15:36:06.986Z,25.63